createdAt,value
2017-12-01T00:00:04.268Z,0
2017-12-01T00:05:03.206Z,0
2017-12-01T00:10:02.857Z,0
2017-12-01T00:15:02.475Z,0
2017-12-01T00:20:02.963Z,0
2017-12-01T00:25:02.516Z,0
2017-12-01T00:30:02.903Z,0
2017-12-01T00:35:03.282Z,0
2017-12-01T00:40:02.760Z,0
2017-12-01T00:45:03.335Z,0
2017-12-01T00:50:02.852Z,0
2017-12-01T00:55:03.375Z,0
2017-12-01T01:00:02.840Z,0
2017-12-01T01:05:02.515Z,0
2017-12-01T01:10:03.192Z,0
2017-12-01T01:15:02.715Z,0
2017-12-01T01:20:03.367Z,0
2017-12-01T01:25:02.855Z,0
2017-12-01T01:30:03.342Z,0
2017-12-01T01:35:02.969Z,0
2017-12-01T01:40:02.594Z,0
2017-12-01T01:45:03.203Z,0
2017-12-01T01:50:02.794Z,0
2017-12-01T01:55:03.210Z,0
2017-12-01T02:00:02.668Z,0
2017-12-01T02:05:03.214Z,0
2017-12-01T02:10:02.853Z,0
2017-12-01T02:15:03.342Z,0
2017-12-01T02:20:02.929Z,0
2017-12-01T02:25:02.578Z,0
2017-12-01T02:30:03.130Z,0
2017-12-01T02:35:02.537Z,0
2017-12-01T02:40:03.102Z,0
2017-12-01T02:45:02.610Z,0
2017-12-01T02:50:03.268Z,0
2017-12-01T02:55:02.827Z,0
2017-12-01T03:00:03.362Z,0
2017-12-01T03:05:02.934Z,0
2017-12-01T03:10:02.496Z,0
2017-12-01T03:15:03.075Z,0
2017-12-01T03:20:02.522Z,0
2017-12-01T03:25:03.018Z,0
2017-12-01T03:30:02.662Z,0
2017-12-01T03:35:03.242Z,0
2017-12-01T03:40:02.783Z,0
2017-12-01T03:45:03.184Z,0
2017-12-01T03:50:02.801Z,0
2017-12-01T03:55:03.277Z,0
2017-12-01T04:00:02.769Z,0
2017-12-01T04:05:03.352Z,0
2017-12-01T04:10:02.869Z,0
2017-12-01T04:15:03.379Z,0
2017-12-01T04:20:02.894Z,0
2017-12-01T04:25:02.497Z,0
2017-12-01T04:30:02.919Z,0
2017-12-01T04:35:03.413Z,0
2017-12-01T04:40:03.103Z,0
2017-12-01T04:45:02.718Z,0
2017-12-01T04:50:03.385Z,0
2017-12-01T04:55:02.986Z,0
2017-12-01T05:00:02.615Z,0
2017-12-01T05:05:03.199Z,0
2017-12-01T05:10:02.811Z,0
2017-12-01T05:15:03.289Z,0
2017-12-01T05:20:02.880Z,0
2017-12-01T05:25:03.485Z,0
2017-12-01T05:30:02.895Z,0
2017-12-01T05:35:03.373Z,0
2017-12-01T05:40:03.027Z,0
2017-12-01T05:45:02.450Z,0
2017-12-01T05:50:02.936Z,0
2017-12-01T05:55:02.501Z,0
2017-12-01T06:00:03.193Z,0
2017-12-01T06:05:02.729Z,0
2017-12-01T06:10:03.324Z,0
2017-12-01T06:15:02.926Z,0
2017-12-01T06:20:02.510Z,0
2017-12-01T06:25:02.978Z,0
2017-12-01T06:30:02.459Z,0
2017-12-01T06:35:02.938Z,0
2017-12-01T06:40:03.463Z,0
2017-12-01T06:45:02.885Z,0
2017-12-01T06:50:03.292Z,1
2017-12-01T06:55:02.866Z,5
2017-12-01T07:00:03.296Z,10
2017-12-01T07:05:02.909Z,20
2017-12-01T07:10:03.400Z,31
2017-12-01T07:15:02.813Z,44
2017-12-01T07:20:03.413Z,48
2017-12-01T07:25:02.954Z,61
2017-12-01T07:30:02.563Z,71
2017-12-01T07:35:03.078Z,118
2017-12-01T07:40:02.706Z,250
2017-12-01T07:45:03.086Z,186
2017-12-01T07:50:02.698Z,309
2017-12-01T07:55:03.158Z,325
2017-12-01T08:00:02.653Z,385
2017-12-01T08:05:03.207Z,530
2017-12-01T08:10:02.855Z,661
2017-12-01T08:15:03.271Z,681
2017-12-01T08:20:02.751Z,918
2017-12-01T08:25:03.195Z,974
2017-12-01T08:30:02.876Z,1000
2017-12-01T08:35:03.402Z,944
2017-12-01T08:40:02.828Z,821
2017-12-01T08:45:02.481Z,688
2017-12-01T08:50:03.123Z,549
2017-12-01T08:55:02.719Z,681
2017-12-01T09:00:03.312Z,707
2017-12-01T09:05:02.812Z,567
2017-12-01T09:10:03.405Z,678
2017-12-01T09:15:02.979Z,969
2017-12-01T09:20:02.624Z,1000
2017-12-01T09:25:03.221Z,855
2017-12-01T09:30:02.812Z,726
2017-12-01T09:35:03.414Z,995
2017-12-01T09:40:02.913Z,1000
2017-12-01T09:45:02.484Z,993
2017-12-01T09:50:03.111Z,1000
2017-12-01T09:55:02.579Z,797
2017-12-01T10:00:03.200Z,629
2017-12-01T10:05:02.616Z,580
2017-12-01T10:10:03.312Z,852
2017-12-01T10:15:02.921Z,990
2017-12-01T10:20:02.599Z,1000
2017-12-01T10:25:03.031Z,1000
2017-12-01T10:30:02.662Z,1000
2017-12-01T10:35:03.203Z,1000
2017-12-01T10:40:02.653Z,1000
2017-12-01T10:45:03.271Z,1000
2017-12-01T10:50:02.823Z,1000
2017-12-01T10:55:03.370Z,1000
2017-12-01T11:00:02.952Z,1000
2017-12-01T11:05:02.548Z,3000
2017-12-01T11:10:03.133Z,3000
2017-12-01T11:15:02.711Z,4000
2017-12-01T11:20:03.258Z,3000
2017-12-01T11:25:02.615Z,3000
2017-12-01T11:30:03.333Z,3000
2017-12-01T11:35:02.771Z,5000
2017-12-01T11:40:03.276Z,5000
2017-12-01T11:45:02.762Z,5000
2017-12-01T11:50:02.526Z,4000
2017-12-01T11:55:03.181Z,6000
2017-12-01T12:00:02.766Z,6000
2017-12-01T12:05:03.308Z,6000
2017-12-01T12:10:02.757Z,2000
2017-12-01T12:15:03.356Z,1000
2017-12-01T12:20:02.978Z,900
2017-12-01T12:25:02.489Z,773
2017-12-01T12:30:02.929Z,988
2017-12-01T12:35:02.623Z,1000
2017-12-01T12:40:03.134Z,1000
2017-12-01T12:45:02.807Z,1000
2017-12-01T12:50:03.429Z,1000
2017-12-01T12:55:02.919Z,1000
2017-12-01T13:00:02.477Z,1000
2017-12-01T13:05:02.944Z,2000
2017-12-01T13:10:02.616Z,2000
2017-12-01T13:15:03.177Z,3000
2017-12-01T13:20:02.771Z,3000
2017-12-01T13:25:03.393Z,3000
2017-12-01T13:30:02.848Z,4000
2017-12-01T13:35:02.482Z,3000
2017-12-01T13:40:03.071Z,3000
2017-12-01T13:45:02.725Z,3000
2017-12-01T13:50:03.239Z,2000
2017-12-01T13:55:02.905Z,2000
2017-12-01T14:00:02.582Z,1000
2017-12-01T14:05:03.175Z,1000
2017-12-01T14:10:02.659Z,1000
2017-12-01T14:15:03.168Z,1000
2017-12-01T14:20:02.868Z,2000
2017-12-01T14:25:03.381Z,1000
2017-12-01T14:30:02.977Z,1000
2017-12-01T14:35:03.406Z,1000
2017-12-01T14:40:03.009Z,861
2017-12-01T14:45:02.750Z,829
2017-12-01T14:50:03.282Z,803
2017-12-01T14:55:02.748Z,783
2017-12-01T15:00:03.366Z,750
2017-12-01T15:05:02.993Z,488
2017-12-01T15:10:02.741Z,418
2017-12-01T15:15:03.276Z,370
2017-12-01T15:20:02.742Z,340
2017-12-01T15:25:03.200Z,210
2017-12-01T15:30:02.697Z,78
2017-12-01T15:35:03.254Z,65
2017-12-01T15:40:02.724Z,56
2017-12-01T15:45:03.320Z,43
2017-12-01T15:50:02.950Z,31
2017-12-01T15:55:02.539Z,13
2017-12-01T16:00:03.193Z,6
2017-12-01T16:05:02.880Z,3
2017-12-01T16:10:03.366Z,1
2017-12-01T16:15:03.018Z,0
2017-12-01T16:20:02.630Z,9
2017-12-01T16:25:03.220Z,10
2017-12-01T16:30:02.648Z,10
2017-12-01T16:35:03.262Z,10
2017-12-01T16:40:02.899Z,10
2017-12-01T16:45:03.434Z,0
2017-12-01T16:50:03.127Z,0
2017-12-01T16:55:02.861Z,0
2017-12-01T17:00:02.507Z,0
2017-12-01T17:05:03.075Z,0
2017-12-01T17:10:02.596Z,0
2017-12-01T17:15:02.971Z,0
2017-12-01T17:20:02.517Z,0
2017-12-01T17:25:03.026Z,0
2017-12-01T17:30:02.583Z,0
2017-12-01T17:35:03.222Z,0
2017-12-01T17:40:02.858Z,0
2017-12-01T17:45:03.415Z,0
2017-12-01T17:50:02.935Z,0
2017-12-01T17:55:03.397Z,0
2017-12-01T18:00:02.970Z,0
2017-12-01T18:05:02.576Z,0
2017-12-01T18:10:03.089Z,0
2017-12-01T18:15:02.510Z,0
2017-12-01T18:20:03.095Z,0
2017-12-01T18:25:02.726Z,0
2017-12-01T18:30:03.203Z,0
2017-12-01T18:35:03.046Z,0
2017-12-01T18:40:02.588Z,0
2017-12-01T18:45:03.100Z,0
2017-12-01T18:50:02.798Z,0
2017-12-01T18:55:03.257Z,0
2017-12-01T19:00:02.915Z,0
2017-12-01T19:05:02.512Z,0
2017-12-01T19:10:03.008Z,0
2017-12-01T19:15:02.686Z,0
2017-12-01T19:20:03.228Z,0
2017-12-01T19:25:02.625Z,0
2017-12-01T19:30:03.222Z,0
2017-12-01T19:35:02.813Z,0
2017-12-01T19:40:03.355Z,0
2017-12-01T19:45:02.992Z,0
2017-12-01T19:50:03.462Z,0
2017-12-01T19:55:02.920Z,0
2017-12-01T20:00:02.547Z,0
2017-12-01T20:05:03.251Z,0
2017-12-01T20:10:03.059Z,0
2017-12-01T20:15:02.494Z,0
2017-12-01T20:20:03.131Z,0
2017-12-01T20:25:02.703Z,0
2017-12-01T20:30:03.346Z,0
2017-12-01T20:35:03.265Z,0
2017-12-01T20:40:02.873Z,0
2017-12-01T20:45:02.570Z,0
2017-12-01T20:50:03.204Z,0
2017-12-01T20:55:02.661Z,0
2017-12-01T21:00:03.095Z,0
2017-12-01T21:05:02.573Z,0
2017-12-01T21:10:03.105Z,0
2017-12-01T21:15:02.616Z,0
2017-12-01T21:20:03.300Z,0
2017-12-01T21:25:02.944Z,0
2017-12-01T21:30:02.523Z,0
2017-12-01T21:35:02.972Z,0
2017-12-01T21:40:03.381Z,0
2017-12-01T21:45:02.797Z,0
2017-12-01T21:50:03.467Z,0
2017-12-01T21:55:03.162Z,0
2017-12-01T22:00:02.577Z,0
2017-12-01T22:05:03.188Z,0
2017-12-01T22:10:02.845Z,0
2017-12-01T22:15:02.503Z,0
2017-12-01T22:20:03.108Z,0
2017-12-01T22:25:02.635Z,0
2017-12-01T22:30:03.246Z,0
2017-12-01T22:35:02.798Z,0
2017-12-01T22:40:03.312Z,0
2017-12-01T22:45:02.962Z,0
2017-12-01T22:50:02.452Z,0
2017-12-01T22:55:02.857Z,0
2017-12-01T23:00:02.518Z,0
2017-12-01T23:05:03.196Z,0
2017-12-01T23:10:02.857Z,0
2017-12-01T23:15:02.460Z,0
2017-12-01T23:20:03.059Z,0
2017-12-01T23:25:02.713Z,0
2017-12-01T23:30:03.349Z,0
2017-12-01T23:35:02.859Z,0
2017-12-01T23:40:02.466Z,0
2017-12-01T23:45:02.948Z,0
2017-12-01T23:50:02.466Z,0
2017-12-01T23:55:03.073Z,0
